Time;durP1;ratioP1;P1;durP2;ratioP2;P2;SDS_P1;SDS_P2;PMS_P1;PMS_P2;Temp;Humidity;BMP_temperature;BMP_pressure;BME280_temperature;BME280_humidity;BME280_pressure;Samples;Min_cycle;Max_cycle;Signal;HPM_P1;HPM_P2
2022/12/07 00:00:42;;;;;;;6.22;4.05;;;4.50;99.90;;;;;;5063039;28;20044;-48
2022/12/07 00:03:07;;;;;;;4.70;3.63;;;4.40;99.90;;;;;;5044767;28;20481;-45
2022/12/07 00:05:33;;;;;;;4.93;3.30;;;4.40;99.90;;;;;;5050277;28;20083;-46
2022/12/07 00:07:58;;;;;;;5.70;3.28;;;4.40;99.90;;;;;;5065256;28;20563;-50
2022/12/07 00:10:24;;;;;;;4.30;2.85;;;4.40;99.90;;;;;;5049680;28;20028;-43
2022/12/07 00:12:50;;;;;;;5.75;3.42;;;4.40;99.90;;;;;;5066115;28;20056;-46
2022/12/07 00:15:15;;;;;;;5.43;3.83;;;4.30;99.90;;;;;;5044884;28;20123;-45
2022/12/07 00:17:41;;;;;;;4.85;3.42;;;4.30;99.90;;;;;;5065074;28;20377;-45
2022/12/07 00:20:07;;;;;;;5.63;3.53;;;4.30;99.90;;;;;;5051778;28;20086;-47
2022/12/07 00:22:32;;;;;;;6.90;4.07;;;4.20;99.90;;;;;;5065102;28;20029;-46
2022/12/07 00:24:58;;;;;;;8.02;4.80;;;4.20;99.90;;;;;;5050919;28;20036;-45
2022/12/07 00:27:23;;;;;;;7.65;4.43;;;4.20;99.90;;;;;;5064020;28;20108;-51
2022/12/07 00:29:49;;;;;;;8.25;4.85;;;4.20;99.90;;;;;;5058157;28;20028;-47
2022/12/07 00:32:14;;;;;;;9.52;5.75;;;4.20;99.90;;;;;;5056330;28;20119;-46
2022/12/07 00:34:40;;;;;;;13.95;7.80;;;4.20;99.90;;;;;;5056450;28;20090;-45
2022/12/07 00:37:05;;;;;;;11.38;6.68;;;4.10;99.90;;;;;;5049170;28;20045;-45
2022/12/07 00:39:31;;;;;;;12.80;6.72;;;4.00;99.90;;;;;;5055243;28;20037;-45
2022/12/07 00:41:56;;;;;;;13.15;7.22;;;4.00;99.90;;;;;;5050883;28;20053;-45
2022/12/07 00:44:22;;;;;;;13.40;7.40;;;3.90;99.90;;;;;;5055657;28;20441;-45
2022/12/07 00:46:48;;;;;;;15.25;8.48;;;3.90;99.90;;;;;;5052384;28;20055;-46
2022/12/07 00:49:13;;;;;;;17.40;8.25;;;3.90;99.90;;;;;;5068907;28;20143;-45
2022/12/07 00:51:39;;;;;;;14.77;7.75;;;3.90;99.90;;;;;;5048221;28;20112;-46
2022/12/07 00:54:04;;;;;;;12.15;7.72;;;3.90;99.90;;;;;;5068957;28;20127;-44
2022/12/07 00:56:30;;;;;;;15.40;7.55;;;3.80;99.90;;;;;;5048068;28;20033;-44
2022/12/07 00:58:58;;;;;;;14.73;7.57;;;3.80;99.90;;;;;;5068957;28;20056;-44
2022/12/07 01:01:26;;;;;;;13.88;7.50;;;3.80;99.90;;;;;;5036277;28;20402;-44
2022/12/07 01:03:52;;;;;;;14.05;7.60;;;3.70;99.90;;;;;;5056680;28;20025;-47
2022/12/07 01:06:20;;;;;;;15.77;7.18;;;3.70;99.90;;;;;;5058992;28;20485;-44
2022/12/07 01:08:46;;;;;;;14.02;7.22;;;3.70;99.90;;;;;;5054005;28;20786;-45
2022/12/07 01:11:14;;;;;;;14.02;7.82;;;3.70;99.90;;;;;;5059378;28;20124;-45
2022/12/07 01:13:40;;;;;;;13.10;6.70;;;3.70;99.90;;;;;;5049361;28;20504;-45
2022/12/07 01:16:07;;;;;;;12.60;7.70;;;3.60;99.90;;;;;;5066198;28;20050;-45
2022/12/07 01:18:34;;;;;;;15.73;7.95;;;3.60;99.90;;;;;;5049052;28;20032;-48
2022/12/07 01:21:10;;;;;;;11.88;6.57;;;3.60;99.90;;;;;;5060581;28;20392;-45
2022/12/07 01:23:36;;;;;;;11.75;6.72;;;3.60;99.90;;;;;;5049383;28;20120;-51
2022/12/07 01:26:04;;;;;;;11.40;6.15;;;3.60;99.90;;;;;;5066467;28;20117;-47
2022/12/07 01:28:30;;;;;;;13.65;6.88;;;3.60;99.90;;;;;;5049082;28;20033;-50
2022/12/07 01:31:07;;;;;;;10.73;5.75;;;3.50;99.90;;;;;;5055065;28;20820;-50
2022/12/07 01:33:35;;;;;;;9.60;5.72;;;3.50;99.90;;;;;;5057099;28;20437;-48
2022/12/07 01:36:05;;;;;;;12.20;6.22;;;3.60;99.90;;;;;;5055899;28;20037;-47
2022/12/07 01:38:32;;;;;;;11.27;6.72;;;3.50;99.90;;;;;;5068741;28;20035;-47
2022/12/07 01:40:58;;;;;;;12.48;6.60;;;3.50;99.90;;;;;;5055037;28;20045;-51
2022/12/07 01:43:26;;;;;;;10.85;5.90;;;3.50;99.90;;;;;;5048924;28;20515;-43
2022/12/07 01:45:52;;;;;;;16.48;7.00;;;3.50;99.90;;;;;;5063063;28;20032;-49
2022/12/07 01:48:25;;;;;;;11.95;6.53;;;3.50;99.90;;;;;;5047782;28;20120;-48
2022/12/07 01:50:52;;;;;;;9.82;5.93;;;3.50;99.90;;;;;;5042804;28;20044;-47
2022/12/07 01:53:19;;;;;;;11.18;6.05;;;3.50;99.90;;;;;;5050684;28;20455;-47
2022/12/07 01:55:47;;;;;;;10.55;6.30;;;3.50;99.90;;;;;;5067526;28;20408;-47
2022/12/07 01:58:14;;;;;;;8.38;5.25;;;3.50;99.90;;;;;;5070746;28;20020;-47
2022/12/07 02:00:41;;;;;;;13.43;6.55;;;3.40;99.90;;;;;;5054933;28;20028;-51
2022/12/07 02:03:17;;;;;;;12.63;6.93;;;3.30;99.90;;;;;;5068625;28;20040;-44
2022/12/07 02:05:44;;;;;;;10.95;5.03;;;3.30;99.90;;;;;;5046447;28;20094;-45
2022/12/07 02:08:11;;;;;;;11.55;5.97;;;3.30;99.90;;;;;;5049047;28;20029;-46
2022/12/07 02:10:37;;;;;;;11.63;6.47;;;3.20;99.90;;;;;;5069935;28;20377;-45
2022/12/07 02:13:16;;;;;;;11.80;5.97;;;3.20;99.90;;;;;;5048976;28;20037;-47
2022/12/07 02:15:59;;;;;;;10.88;6.22;;;3.20;99.90;;;;;;5030951;28;20021;-44
2022/12/07 02:19:02;;;;;;;10.98;5.75;;;3.30;99.90;;;;;;5046219;28;20064;-44
2022/12/07 02:21:55;;;;;;;8.35;4.97;;;3.30;99.90;;;;;;5067560;28;20090;-45
2022/12/07 02:24:29;;;;;;;11.77;5.65;;;3.30;99.90;;;;;;5070179;28;20013;-47
2022/12/07 02:27:27;;;;;;;10.55;5.30;;;3.30;99.90;;;;;;5054083;28;20071;-44
2022/12/07 02:30:11;;;;;;;13.82;6.95;;;3.20;99.90;;;;;;5030598;28;20128;-46
2022/12/07 02:33:07;;;;;;;10.73;5.85;;;3.20;99.90;;;;;;5067554;28;20021;-44
2022/12/07 02:35:38;;;;;;;12.40;6.65;;;3.20;99.90;;;;;;5030345;28;20045;-44
2022/12/07 02:38:18;;;;;;;11.05;5.85;;;3.20;99.90;;;;;;5052091;28;20044;-45
2022/12/07 02:40:52;;;;;;;11.30;5.60;;;3.20;99.90;;;;;;5036092;28;20041;-44
2022/12/07 02:43:30;;;;;;;11.93;6.43;;;3.20;99.90;;;;;;5051201;28;20481;-45
2022/12/07 02:46:02;;;;;;;10.57;5.47;;;3.20;99.90;;;;;;5029965;28;20036;-46
2022/12/07 02:48:30;;;;;;;11.18;6.20;;;3.10;99.90;;;;;;5046213;28;20017;-45
2022/12/07 02:50:55;;;;;;;10.52;5.82;;;3.10;99.90;;;;;;5069233;28;20036;-52
2022/12/07 02:53:39;;;;;;;11.23;6.47;;;3.10;99.90;;;;;;5048521;28;20031;-52
2022/12/07 02:56:13;;;;;;;12.50;6.45;;;3.10;99.90;;;;;;5029581;28;20045;-50
2022/12/07 02:59:17;;;;;;;13.38;7.05;;;3.00;99.90;;;;;;5047395;28;20602;-50
2022/12/07 03:01:50;;;;;;;11.02;5.72;;;3.00;99.90;;;;;;5035174;28;20029;-45
2022/12/07 03:04:54;;;;;;;12.60;6.47;;;3.00;99.90;;;;;;5069400;28;20029;-42
2022/12/07 03:07:59;;;;;;;9.18;4.90;;;3.00;99.90;;;;;;5045108;28;20041;-44
2022/12/07 03:10:32;;;;;;;11.77;6.15;;;3.00;99.90;;;;;;5029575;28;20108;-43
2022/12/07 03:13:18;;;;;;;9.95;6.13;;;2.90;99.90;;;;;;5041884;28;20496;-43
2022/12/07 03:16:07;;;;;;;9.00;5.15;;;2.80;99.90;;;;;;5029751;28;20030;-43
2022/12/07 03:18:43;;;;;;;11.95;5.82;;;2.80;99.90;;;;;;5046605;28;20041;-46
2022/12/07 03:21:13;;;;;;;8.38;5.07;;;2.70;99.90;;;;;;5029521;28;20112;-43
2022/12/07 03:23:41;;;;;;;8.80;4.80;;;2.70;99.90;;;;;;5047254;28;20129;-45
2022/12/07 03:26:11;;;;;;;10.35;5.30;;;2.60;99.90;;;;;;5068344;28;20467;-45
2022/12/07 03:28:43;;;;;;;8.10;5.03;;;2.60;99.90;;;;;;5046730;28;20556;-46
2022/12/07 03:31:18;;;;;;;11.45;5.78;;;2.50;99.90;;;;;;5029230;28;20080;-47
2022/12/07 03:33:54;;;;;;;13.13;6.32;;;2.50;99.90;;;;;;5029117;28;20056;-46
2022/12/07 03:36:36;;;;;;;10.23;5.10;;;2.40;99.90;;;;;;5049262;28;20028;-43
2022/12/07 03:39:20;;;;;;;9.38;5.53;;;2.40;99.90;;;;;;5029233;28;20490;-43
2022/12/07 03:41:46;;;;;;;9.13;5.40;;;2.30;99.90;;;;;;5042000;28;20033;-43
2022/12/07 03:44:13;;;;;;;9.55;5.10;;;2.20;99.90;;;;;;5068229;28;20547;-46
2022/12/07 03:47:15;;;;;;;12.43;6.75;;;2.10;99.90;;;;;;5047548;28;20114;-44
2022/12/07 03:49:51;;;;;;;11.88;6.88;;;2.10;99.90;;;;;;5028909;28;20029;-43
2022/12/07 03:52:39;;;;;;;9.85;5.43;;;2.00;99.90;;;;;;5046214;28;20037;-43
2022/12/07 03:55:26;;;;;;;11.52;5.80;;;2.00;99.90;;;;;;5028376;28;20148;-43
2022/12/07 03:57:56;;;;;;;10.70;5.63;;;2.00;99.90;;;;;;5068683;28;20056;-43
2022/12/07 04:00:22;;;;;;;7.60;4.85;;;2.00;99.90;;;;;;5049844;28;20021;-43
2022/12/07 04:02:50;;;;;;;9.85;6.00;;;2.00;99.90;;;;;;5069027;28;20012;-43
2022/12/07 04:05:16;;;;;;;11.60;6.38;;;2.10;99.90;;;;;;5049102;28;20090;-43
2022/12/07 04:07:42;;;;;;;8.73;4.72;;;2.10;99.90;;;;;;5059979;28;20439;-45
2022/12/07 04:10:08;;;;;;;8.73;4.88;;;2.10;99.90;;;;;;5049387;28;20029;-45
2022/12/07 04:12:33;;;;;;;8.00;5.32;;;2.20;99.90;;;;;;5059994;28;20052;-45
2022/12/07 04:14:59;;;;;;;9.25;5.32;;;2.20;99.90;;;;;;5074742;28;20534;-45
2022/12/07 04:17:24;;;;;;;11.15;5.40;;;2.30;99.90;;;;;;5053877;28;20486;-44
2022/12/07 04:19:50;;;;;;;9.18;5.15;;;2.30;99.90;;;;;;5074752;28;20029;-44
2022/12/07 04:22:15;;;;;;;9.70;5.25;;;2.30;99.90;;;;;;5063663;28;20041;-45
2022/12/07 04:24:41;;;;;;;8.65;4.85;;;2.30;99.90;;;;;;5055864;28;20067;-46
2022/12/07 04:27:06;;;;;;;10.68;5.60;;;2.30;99.90;;;;;;5072552;28;20037;-44
2022/12/07 04:29:32;;;;;;;8.35;5.05;;;2.30;99.90;;;;;;5055650;28;20021;-48
2022/12/07 04:31:57;;;;;;;10.20;5.80;;;2.30;99.90;;;;;;5072678;28;20024;-44
2022/12/07 04:34:23;;;;;;;10.68;5.72;;;2.30;99.90;;;;;;5075096;28;20032;-44
2022/12/07 04:36:49;;;;;;;9.25;5.53;;;2.40;99.90;;;;;;5053897;28;20040;-44
2022/12/07 04:39:26;;;;;;;8.35;5.35;;;2.40;99.90;;;;;;5074228;28;20031;-45
2022/12/07 04:41:52;;;;;;;11.43;6.15;;;2.40;99.90;;;;;;5053414;28;20044;-44
2022/12/07 04:44:19;;;;;;;12.80;6.15;;;2.40;99.90;;;;;;5074469;28;20381;-44
2022/12/07 04:46:45;;;;;;;10.57;5.60;;;2.40;99.90;;;;;;5053856;28;20025;-44
2022/12/07 04:49:12;;;;;;;10.98;6.22;;;2.40;99.90;;;;;;5074311;28;20031;-44
2022/12/07 04:51:38;;;;;;;9.20;5.95;;;2.40;99.90;;;;;;5053543;28;20040;-46
2022/12/07 04:54:04;;;;;;;10.00;6.00;;;2.30;99.90;;;;;;5070117;28;20020;-44
2022/12/07 04:56:29;;;;;;;10.65;6.07;;;2.30;99.90;;;;;;5057346;28;20017;-44
2022/12/07 04:58:55;;;;;;;13.00;7.13;;;2.30;99.90;;;;;;5052968;28;20043;-45
2022/12/07 05:01:21;;;;;;;13.82;7.45;;;2.30;99.90;;;;;;5044956;28;20048;-45
2022/12/07 05:03:47;;;;;;;14.13;6.65;;;2.40;99.90;;;;;;5050364;28;20040;-46
2022/12/07 05:06:14;;;;;;;10.95;6.07;;;2.30;99.90;;;;;;5053769;28;20111;-44
2022/12/07 05:08:40;;;;;;;13.85;6.70;;;2.30;99.90;;;;;;5074465;28;20621;-44
2022/12/07 05:11:06;;;;;;;14.43;7.57;;;2.30;99.90;;;;;;5052517;28;20052;-44
2022/12/07 05:13:32;;;;;;;11.18;5.93;;;2.30;99.90;;;;;;5074141;28;20444;-49
2022/12/07 05:15:58;;;;;;;13.25;7.22;;;2.40;99.90;;;;;;5053738;28;20072;-46
2022/12/07 05:18:23;;;;;;;14.43;7.32;;;2.40;99.90;;;;;;5073806;28;20055;-51
2022/12/07 05:20:50;;;;;;;16.13;8.05;;;2.40;99.90;;;;;;5053539;28;20052;-44
2022/12/07 05:23:16;;;;;;;17.95;8.20;;;2.40;99.90;;;;;;5072108;28;20043;-46
2022/12/07 05:25:42;;;;;;;15.30;8.27;;;2.40;99.90;;;;;;5050321;28;20029;-45
2022/12/07 05:28:07;;;;;;;12.40;7.28;;;2.40;99.90;;;;;;5071137;28;20060;-44
2022/12/07 05:30:33;;;;;;;13.52;7.78;;;2.40;99.90;;;;;;5050008;28;20393;-44
2022/12/07 05:32:59;;;;;;;20.35;9.77;;;2.40;99.90;;;;;;5070713;28;20029;-46
2022/12/07 05:35:24;;;;;;;21.75;9.63;;;2.40;99.90;;;;;;5050136;28;20047;-48
2022/12/07 05:37:50;;;;;;;18.73;9.95;;;2.40;99.90;;;;;;5070755;28;20036;-44
2022/12/07 05:40:16;;;;;;;14.52;7.65;;;2.40;99.90;;;;;;5050007;28;20025;-45
2022/12/07 05:42:42;;;;;;;20.55;10.93;;;2.40;99.90;;;;;;5071004;28;20408;-43
2022/12/07 05:45:09;;;;;;;15.73;8.63;;;2.40;99.90;;;;;;5049382;28;20029;-45
2022/12/07 05:47:35;;;;;;;18.42;9.45;;;2.40;99.90;;;;;;5069996;28;20517;-44
2022/12/07 05:50:01;;;;;;;17.75;9.25;;;2.40;99.90;;;;;;5059772;28;20507;-46
2022/12/07 05:52:27;;;;;;;19.52;10.23;;;2.50;99.90;;;;;;5051683;28;20057;-44
2022/12/07 05:54:52;;;;;;;19.40;9.50;;;2.40;99.90;;;;;;5068148;28;20512;-43
2022/12/07 05:57:18;;;;;;;19.45;9.75;;;2.40;99.90;;;;;;5051637;28;20497;-44
2022/12/07 05:59:44;;;;;;;21.45;10.70;;;2.40;99.90;;;;;;5065056;28;20032;-43
2022/12/07 06:02:12;;;;;;;18.17;9.07;;;2.40;99.90;;;;;;5050823;28;20469;-44
2022/12/07 06:04:41;;;;;;;18.95;9.52;;;2.40;99.90;;;;;;5066237;28;20499;-46
2022/12/07 06:07:07;;;;;;;16.83;9.13;;;2.40;99.90;;;;;;5045386;28;20029;-43
2022/12/07 06:09:34;;;;;;;18.15;9.77;;;2.40;99.90;;;;;;5070150;28;20068;-47
2022/12/07 06:14:44;;;;;;;21.00;10.00;;;2.40;99.90;;;;;;5030601;28;20055;-45
2022/12/07 06:17:11;;;;;;;16.90;9.68;;;2.50;99.90;;;;;;5070831;28;20028;-45
2022/12/07 06:19:37;;;;;;;21.17;9.98;;;2.50;99.90;;;;;;5049833;28;20132;-45
2022/12/07 06:22:04;;;;;;;19.95;9.95;;;2.50;99.90;;;;;;5043361;28;20652;-45
2022/12/07 06:24:30;;;;;;;20.45;9.55;;;2.50;99.90;;;;;;5070666;28;20028;-45
2022/12/07 06:26:56;;;;;;;19.52;10.25;;;2.50;99.90;;;;;;5049065;28;20028;-44
2022/12/07 06:29:22;;;;;;;18.02;9.27;;;2.50;99.90;;;;;;5069489;28;20033;-46
2022/12/07 06:31:48;;;;;;;19.35;10.18;;;2.60;99.90;;;;;;5049033;28;20078;-44
2022/12/07 06:34:16;;;;;;;20.85;10.40;;;2.60;99.90;;;;;;5068750;28;20037;-46
2022/12/07 06:36:42;;;;;;;22.85;11.65;;;2.60;99.90;;;;;;5048533;28;20064;-44
2022/12/07 06:39:08;;;;;;;20.20;9.95;;;2.60;99.90;;;;;;5069231;28;20068;-44
2022/12/07 06:41:36;;;;;;;21.13;10.35;;;2.70;99.90;;;;;;5049269;28;20041;-47
2022/12/07 06:44:02;;;;;;;22.15;10.30;;;2.70;99.90;;;;;;5048328;28;20481;-45
2022/12/07 06:46:28;;;;;;;19.90;9.45;;;2.70;99.90;;;;;;5049141;28;20077;-44
2022/12/07 06:48:53;;;;;;;24.67;10.75;;;2.80;99.90;;;;;;5068922;28;20104;-45
2022/12/07 06:51:19;;;;;;;22.85;10.57;;;2.80;99.90;;;;;;5048843;28;20033;-48
2022/12/07 06:53:44;;;;;;;23.30;11.43;;;2.80;99.90;;;;;;5064483;28;20067;-45
2022/12/07 06:56:10;;;;;;;23.70;11.13;;;2.80;99.90;;;;;;5046826;28;20036;-44
2022/12/07 06:58:35;;;;;;;23.48;11.55;;;2.90;99.90;;;;;;5068643;28;20066;-45
2022/12/07 07:01:01;;;;;;;23.27;11.40;;;2.90;99.90;;;;;;5067899;28;20377;-48
2022/12/07 07:03:27;;;;;;;25.13;12.40;;;2.90;99.90;;;;;;5051150;28;20114;-49
2022/12/07 07:05:52;;;;;;;22.38;11.02;;;2.90;99.90;;;;;;5064880;28;20043;-45
2022/12/07 07:08:18;;;;;;;24.42;12.82;;;2.90;99.90;;;;;;5047049;28;20036;-45
2022/12/07 07:10:43;;;;;;;27.15;12.75;;;2.90;99.90;;;;;;5067751;28;20024;-45
2022/12/07 07:13:09;;;;;;;23.67;12.23;;;2.90;99.90;;;;;;5046285;28;20219;-46
2022/12/07 07:15:36;;;;;;;24.48;11.93;;;3.00;99.90;;;;;;5067697;28;20024;-45
2022/12/07 07:18:03;;;;;;;19.25;9.98;;;3.00;99.90;;;;;;5056893;28;20040;-45
2022/12/07 07:20:28;;;;;;;23.45;12.75;;;3.00;99.90;;;;;;5048431;28;20036;-46
2022/12/07 07:22:55;;;;;;;28.40;12.30;;;3.00;99.90;;;;;;5065651;28;20508;-45
2022/12/07 07:25:20;;;;;;;26.50;13.38;;;3.00;99.90;;;;;;5048412;28;20039;-45
2022/12/07 07:27:46;;;;;;;24.15;12.32;;;3.00;99.90;;;;;;5065445;28;20451;-46
2022/12/07 07:30:12;;;;;;;26.40;12.63;;;3.10;99.90;;;;;;5048846;28;20033;-45
2022/12/07 07:32:37;;;;;;;26.40;12.40;;;3.10;99.90;;;;;;5065114;28;20032;-46
2022/12/07 07:35:03;;;;;;;25.55;12.07;;;3.10;99.90;;;;;;5067937;28;20409;-45
2022/12/07 07:37:28;;;;;;;24.05;11.63;;;3.20;99.90;;;;;;5052128;28;20028;-48
2022/12/07 07:39:54;;;;;;;22.65;11.20;;;3.20;99.90;;;;;;5068039;28;20032;-45
2022/12/07 07:42:19;;;;;;;23.70;11.93;;;3.20;99.90;;;;;;5051020;28;20044;-44
2022/12/07 07:44:45;;;;;;;22.77;12.15;;;3.30;99.90;;;;;;5067634;28;20056;-47
2022/12/07 07:47:10;;;;;;;24.48;11.63;;;3.30;99.90;;;;;;5049111;28;20044;-44
2022/12/07 07:49:36;;;;;;;21.42;11.40;;;3.40;99.90;;;;;;5068092;28;20025;-48
2022/12/07 07:52:01;;;;;;;25.00;12.35;;;3.40;99.90;;;;;;5048487;28;20098;-45
2022/12/07 07:54:27;;;;;;;24.13;12.65;;;3.50;99.90;;;;;;5067697;28;20032;-45
2022/12/07 07:56:53;;;;;;;19.42;10.52;;;3.50;99.90;;;;;;5046951;28;20025;-45
2022/12/07 07:59:18;;;;;;;21.02;11.50;;;3.50;99.90;;;;;;5067241;28;20025;-45
2022/12/07 08:01:44;;;;;;;25.35;12.38;;;3.60;99.90;;;;;;5046980;28;20725;-46
2022/12/07 08:04:09;;;;;;;24.50;12.27;;;3.70;99.90;;;;;;5063474;28;20032;-48
2022/12/07 08:06:35;;;;;;;21.92;11.55;;;3.70;99.90;;;;;;5046965;28;20061;-45
2022/12/07 08:09:01;;;;;;;26.88;13.40;;;3.80;99.90;;;;;;5064764;28;20875;-45
2022/12/07 08:11:27;;;;;;;22.48;11.70;;;3.80;99.90;;;;;;5067695;28;20377;-44
2022/12/07 08:13:52;;;;;;;19.88;11.10;;;3.80;99.90;;;;;;5047462;28;20078;-47
2022/12/07 08:16:18;;;;;;;18.98;9.98;;;3.90;99.90;;;;;;5067804;28;20032;-45
2022/12/07 08:18:43;;;;;;;21.05;10.65;;;3.90;99.90;;;;;;5046438;28;20119;-47
2022/12/07 08:21:15;;;;;;;19.48;9.55;;;3.90;99.90;;;;;;5067209;28;20519;-45
2022/12/07 08:23:41;;;;;;;22.27;9.40;;;4.00;99.90;;;;;;5047616;28;20401;-44
2022/12/07 08:26:11;;;;;;;17.98;9.65;;;4.00;99.90;;;;;;5053291;28;20041;-44
2022/12/07 08:28:38;;;;;;;23.05;9.60;;;4.10;99.90;;;;;;5027570;28;20123;-44
2022/12/07 08:31:07;;;;;;;17.83;9.38;;;4.10;99.90;;;;;;5064581;28;20028;-45
2022/12/07 08:33:33;;;;;;;13.05;7.10;;;4.20;99.90;;;;;;5046952;28;20044;-44
2022/12/07 08:36:07;;;;;;;13.32;6.78;;;4.20;99.90;;;;;;5046157;28;20028;-44
2022/12/07 08:38:35;;;;;;;13.68;7.13;;;4.30;99.90;;;;;;5027401;28;20040;-44
2022/12/07 08:41:00;;;;;;;14.10;6.97;;;4.30;99.90;;;;;;5051421;28;20048;-44
2022/12/07 08:43:26;;;;;;;11.10;6.63;;;4.30;99.90;;;;;;5067442;28;20039;-45
2022/12/07 08:46:08;;;;;;;9.38;5.88;;;4.30;99.90;;;;;;5045701;28;20907;-44
2022/12/07 08:48:35;;;;;;;10.60;6.35;;;4.30;99.90;;;;;;5027542;28;20079;-41
2022/12/07 08:51:02;;;;;;;9.63;5.90;;;4.40;99.90;;;;;;5045257;28;20029;-42
2022/12/07 08:53:28;;;;;;;11.20;6.50;;;4.40;99.90;;;;;;5066642;28;20036;-43
2022/12/07 08:55:56;;;;;;;8.05;5.32;;;4.50;99.90;;;;;;5045989;28;20029;-41
2022/12/07 08:58:21;;;;;;;9.57;5.75;;;4.50;99.90;;;;;;5069239;28;20161;-43
2022/12/07 09:00:47;;;;;;;8.18;5.80;;;4.60;99.90;;;;;;5049804;28;20057;-42
2022/12/07 09:03:12;;;;;;;13.82;6.35;;;4.60;99.90;;;;;;5070110;28;20031;-44
2022/12/07 09:05:38;;;;;;;7.88;4.93;;;4.70;99.90;;;;;;5053041;28;20107;-44
2022/12/07 09:08:03;;;;;;;8.52;4.30;;;4.70;99.90;;;;;;5051467;28;20550;-45
2022/12/07 09:10:29;;;;;;;6.82;4.03;;;4.80;99.90;;;;;;5053090;28;20040;-45
2022/12/07 09:12:55;;;;;;;7.10;4.55;;;4.80;99.90;;;;;;5069939;28;20067;-46
2022/12/07 09:15:20;;;;;;;5.68;3.72;;;4.90;99.90;;;;;;5049287;28;20045;-46
2022/12/07 09:17:46;;;;;;;5.40;3.92;;;4.90;99.90;;;;;;5069705;28;20037;-45
2022/12/07 09:20:12;;;;;;;7.93;3.60;;;4.90;99.90;;;;;;5049221;28;20091;-45
2022/12/07 09:22:37;;;;;;;5.35;4.00;;;5.00;99.90;;;;;;5069547;28;20035;-49
2022/12/07 09:25:04;;;;;;;6.47;3.78;;;5.00;99.90;;;;;;5048494;28;20493;-45
2022/12/07 09:27:30;;;;;;;5.88;3.47;;;5.00;99.90;;;;;;5069966;28;20479;-45
2022/12/07 09:29:55;;;;;;;6.85;3.55;;;5.00;99.90;;;;;;5058990;28;20528;-49
2022/12/07 09:32:21;;;;;;;6.43;3.78;;;5.10;99.90;;;;;;5050751;28;20041;-45
2022/12/07 09:34:46;;;;;;;5.80;2.90;;;5.00;99.90;;;;;;5067292;28;20064;-49
2022/12/07 09:37:12;;;;;;;4.43;3.10;;;5.00;99.90;;;;;;5050721;28;20025;-45
2022/12/07 09:39:38;;;;;;;4.78;3.67;;;4.90;99.90;;;;;;5067517;28;20044;-45
2022/12/07 09:42:05;;;;;;;4.40;2.85;;;5.00;99.90;;;;;;5050359;28;20064;-45
2022/12/07 09:44:31;;;;;;;29.38;10.43;;;4.90;99.90;;;;;;5067524;28;20492;-49
2022/12/07 09:46:57;;;;;;;7.05;4.38;;;4.90;99.90;;;;;;5069838;28;20035;-45
2022/12/07 09:49:26;;;;;;;6.85;3.80;;;4.90;99.90;;;;;;5054234;28;20024;-48
2022/12/07 09:52:07;;;;;;;4.95;3.08;;;4.80;99.90;;;;;;5070031;28;20023;-47
2022/12/07 09:54:45;;;;;;;3.83;2.70;;;4.90;99.90;;;;;;5055074;28;20028;-46
2022/12/07 09:57:14;;;;;;;2.88;2.17;;;4.80;99.90;;;;;;5069868;28;20031;-45
2022/12/07 09:59:40;;;;;;;2.67;2.42;;;4.80;99.90;;;;;;5055721;28;20033;-45
2022/12/07 10:02:29;;;;;;;3.08;2.65;;;4.80;99.90;;;;;;5050127;28;20386;-45
2022/12/07 10:04:57;;;;;;;2.53;2.03;;;4.70;99.90;;;;;;5044813;28;20025;-45
2022/12/07 10:07:22;;;;;;;4.80;2.28;;;4.80;99.90;;;;;;5047243;28;20263;-45
2022/12/07 10:09:48;;;;;;;2.65;2.10;;;4.80;99.90;;;;;;5056857;28;20492;-45
2022/12/07 10:12:14;;;;;;;2.47;1.83;;;4.90;99.90;;;;;;5068634;28;20052;-46
2022/12/07 10:15:09;;;;;;;2.17;1.70;;;4.90;99.90;;;;;;5056105;28;20033;-45
2022/12/07 10:17:40;;;;;;;2.67;1.80;;;5.00;99.90;;;;;;5024912;28;20041;-45
2022/12/07 10:20:23;;;;;;;2.65;1.58;;;5.00;99.90;;;;;;5055639;28;20040;-48
2022/12/07 10:23:13;;;;;;;2.30;1.70;;;5.00;99.90;;;;;;5029581;28;20029;-45
2022/12/07 10:25:40;;;;;;;2.33;1.67;;;5.00;99.90;;;;;;5043720;28;20029;-49
2022/12/07 10:28:16;;;;;;;2.85;2.17;;;5.00;99.90;;;;;;5068796;28;20400;-47
2022/12/07 10:31:04;;;;;;;1.77;1.67;;;4.90;99.90;;;;;;5044333;28;20380;-46
2022/12/07 10:33:36;;;;;;;2.08;1.55;;;4.90;99.90;;;;;;5029263;28;20040;-45
2022/12/07 10:36:17;;;;;;;1.80;1.52;;;4.90;99.90;;;;;;5046453;28;20405;-44
2022/12/07 10:38:49;;;;;;;2.20;1.90;;;4.80;99.90;;;;;;5027637;28;20052;-45
2022/12/07 10:41:15;;;;;;;2.03;1.60;;;4.70;99.90;;;;;;5060759;28;20079;-44
2022/12/07 10:43:49;;;;;;;1.90;1.65;;;4.70;99.90;;;;;;5068209;28;20493;-44
2022/12/07 10:46:32;;;;;;;2.10;1.85;;;4.70;99.90;;;;;;5068989;28;20035;-46
2022/12/07 10:49:53;;;;;;;3.30;1.52;;;4.70;99.90;;;;;;5031358;28;20025;-45
2022/12/07 10:52:30;;;;;;;3.25;1.73;;;4.80;99.90;;;;;;5068817;28;20029;-44
2022/12/07 10:55:12;;;;;;;1.90;1.45;;;4.80;99.90;;;;;;5047328;28;20048;-44
2022/12/07 10:57:56;;;;;;;3.60;1.30;;;4.80;99.90;;;;;;5029054;28;20026;-45
2022/12/07 11:00:26;;;;;;;1.73;1.50;;;4.80;99.90;;;;;;5040333;28;20083;-48
2022/12/07 11:03:19;;;;;;;2.53;1.77;;;4.70;99.90;;;;;;5028750;28;20474;-45
2022/12/07 11:05:55;;;;;;;1.30;1.20;;;4.60;99.90;;;;;;5050904;28;20021;-45
2022/12/07 11:08:34;;;;;;;3.05;1.70;;;4.50;99.90;;;;;;5029657;28;20030;-44
2022/12/07 11:11:22;;;;;;;2.47;1.63;;;4.50;99.90;;;;;;5046842;28;20587;-45
2022/12/07 11:14:14;;;;;;;1.42;1.25;;;4.40;99.90;;;;;;5048709;28;20057;-46
2022/12/07 11:17:09;;;;;;;2.20;1.40;;;4.50;99.90;;;;;;5029317;28;20041;-47
2022/12/07 11:20:08;;;;;;;2.17;1.30;;;4.50;99.90;;;;;;5044542;28;20029;-48
2022/12/07 11:23:04;;;;;;;1.75;1.35;;;4.40;99.90;;;;;;5028481;28;20029;-44
2022/12/07 11:25:37;;;;;;;1.63;1.30;;;4.40;99.90;;;;;;5069140;28;20029;-44
2022/12/07 11:28:33;;;;;;;2.90;1.45;;;4.50;99.90;;;;;;5036408;28;20036;-46
2022/12/07 11:31:22;;;;;;;4.32;1.70;;;4.50;99.90;;;;;;5029315;28;20040;-45
2022/12/07 11:34:00;;;;;;;4.65;1.95;;;4.50;99.90;;;;;;5066698;28;20044;-45
2022/12/07 11:36:48;;;;;;;2.95;1.50;;;4.50;99.90;;;;;;5029132;28;20029;-45
2022/12/07 11:39:23;;;;;;;2.10;1.30;;;4.50;99.90;;;;;;5041471;28;20032;-45
2022/12/07 11:42:00;;;;;;;2.13;1.40;;;4.50;99.90;;;;;;5028870;28;20045;-45
2022/12/07 11:44:54;;;;;;;4.50;1.58;;;4.60;99.90;;;;;;5043106;28;20590;-45
2022/12/07 11:47:25;;;;;;;3.50;1.50;;;4.70;99.90;;;;;;5030644;28;20040;-47
2022/12/07 11:49:58;;;;;;;3.65;1.30;;;4.70;99.90;;;;;;5046661;28;20029;-49
2022/12/07 11:52:49;;;;;;;2.58;2.05;;;4.70;99.90;;;;;;5028853;28;20136;-47
2022/12/07 11:55:26;;;;;;;2.20;1.73;;;4.70;99.90;;;;;;5028680;28;20502;-45
2022/12/07 11:58:03;;;;;;;3.85;1.90;;;4.60;99.90;;;;;;5033120;28;20111;-47
2022/12/07 12:00:28;;;;;;;2.95;1.58;;;4.60;99.90;;;;;;5068800;28;20024;-44
2022/12/07 12:03:11;;;;;;;2.63;1.75;;;4.70;99.90;;;;;;5050598;28;20035;-44
2022/12/07 12:05:38;;;;;;;2.10;1.67;;;4.60;99.90;;;;;;5052315;28;20033;-43
2022/12/07 12:08:33;;;;;;;2.22;1.92;;;4.60;99.90;;;;;;5066036;28;20028;-43
2022/12/07 12:11:03;;;;;;;3.40;2.30;;;4.70;99.90;;;;;;5066747;28;20036;-43
2022/12/07 12:13:58;;;;;;;3.80;2.03;;;4.70;99.90;;;;;;5054422;28;20029;-43
2022/12/07 12:17:09;;;;;;;1.98;1.48;;;4.70;99.90;;;;;;5028732;28;20026;-44
2022/12/07 12:19:54;;;;;;;2.33;2.03;;;4.80;99.90;;;;;;5040812;28;20072;-46
2022/12/07 12:22:27;;;;;;;4.78;2.42;;;4.70;99.90;;;;;;5028543;28;20360;-44
2022/12/07 12:24:54;;;;;;;5.15;2.13;;;4.70;99.90;;;;;;5046359;28;20033;-44
2022/12/07 12:27:30;;;;;;;3.72;2.13;;;4.70;99.90;;;;;;5067940;28;20484;-46
2022/12/07 12:29:59;;;;;;;2.90;1.98;;;4.70;99.90;;;;;;5028576;28;20537;-44
2022/12/07 12:32:41;;;;;;;3.28;2.10;;;4.70;99.90;;;;;;5069212;28;20025;-46
2022/12/07 12:35:28;;;;;;;5.28;2.42;;;4.70;99.90;;;;;;5072269;28;20051;-44
2022/12/07 12:37:54;;;;;;;4.25;2.20;;;4.80;99.90;;;;;;5054090;28;20025;-44
2022/12/07 12:40:20;;;;;;;3.78;2.03;;;4.80;99.90;;;;;;5071517;28;20024;-45
2022/12/07 12:42:50;;;;;;;3.05;2.00;;;4.80;99.90;;;;;;5052418;28;20029;-46
2022/12/07 12:45:20;;;;;;;3.47;1.83;;;4.90;99.90;;;;;;5072236;28;20041;-44
2022/12/07 12:47:54;;;;;;;3.80;1.90;;;4.90;99.90;;;;;;5052314;28;20113;-44
2022/12/07 12:50:37;;;;;;;4.82;2.00;;;4.90;99.90;;;;;;5072161;28;20032;-47
2022/12/07 12:53:23;;;;;;;4.88;2.20;;;4.90;99.90;;;;;;5054714;28;20067;-45
2022/12/07 12:56:13;;;;;;;5.97;2.92;;;4.90;99.90;;;;;;5071980;28;20686;-44
2022/12/07 12:58:41;;;;;;;4.50;2.17;;;4.90;99.90;;;;;;5049143;28;20036;-44
2022/12/07 13:01:38;;;;;;;3.22;2.05;;;4.90;99.90;;;;;;5052026;28;20036;-43
2022/12/07 13:04:14;;;;;;;;;;;4.90;99.90;;;;;;5052945;28;20044;-45
2022/12/07 13:06:42;;;;;;;4.88;2.55;;;4.90;99.90;;;;;;5025349;28;19955;-44
2022/12/07 13:09:22;;;;;;;8.98;2.70;;;4.90;99.90;;;;;;5055616;28;20489;-44
2022/12/07 13:11:49;;;;;;;7.03;2.60;;;5.00;99.90;;;;;;5031861;28;20051;-44
2022/12/07 13:14:37;;;;;;;5.13;2.30;;;5.00;99.90;;;;;;5054229;28;20037;-45